createdAt,value
2023-04-17T00:00:14.847Z,34.30
2023-04-17T00:01:15.543Z,36.70
2023-04-17T00:02:16.226Z,34.50
2023-04-17T00:03:17.080Z,32.40
2023-04-17T00:04:17.333Z,35.60
2023-04-17T00:05:17.520Z,33.90
2023-04-17T00:06:17.626Z,37.00
2023-04-17T00:07:18.248Z,37.10
2023-04-17T00:08:18.952Z,36.20
2023-04-17T00:09:19.582Z,36.00
2023-04-17T00:10:20.204Z,36.70
2023-04-17T00:11:20.835Z,38.10
2023-04-17T00:12:21.469Z,34.10
2023-04-17T00:13:22.105Z,36.10
2023-04-17T00:14:22.743Z,35.10
2023-04-17T00:15:23.382Z,33.90
2023-04-17T00:16:24.082Z,34.80
2023-04-17T00:17:24.779Z,34.50
2023-04-17T00:18:25.413Z,27.80
2023-04-17T00:19:26.046Z,27.40
2023-04-17T00:20:26.673Z,36.70
2023-04-17T00:21:27.287Z,35.30
2023-04-17T00:22:27.912Z,34.20
2023-04-17T00:23:28.546Z,35.10
2023-04-17T00:24:29.167Z,34.70
2023-04-17T00:25:29.803Z,36.90
2023-04-17T00:26:30.425Z,36.20
2023-04-17T00:27:31.033Z,36.30
2023-04-17T00:28:31.655Z,35.80
2023-04-17T00:29:32.311Z,34.10
2023-04-17T00:30:32.937Z,31.90
2023-04-17T00:31:33.588Z,32.90
2023-04-17T00:32:34.331Z,31.70
2023-04-17T00:33:34.412Z,36.60
2023-04-17T00:34:35.056Z,36.80
2023-04-17T00:35:35.686Z,37.00
2023-04-17T00:36:36.324Z,34.90
2023-04-17T00:37:36.965Z,31.00
2023-04-17T00:38:37.585Z,28.80
2023-04-17T00:39:38.204Z,30.30
2023-04-17T00:40:38.830Z,30.60
2023-04-17T00:41:39.545Z,34.20
2023-04-17T00:42:39.701Z,33.40
2023-04-17T00:43:40.331Z,35.00
2023-04-17T00:44:40.963Z,35.10
2023-04-17T00:45:41.685Z,35.90
2023-04-17T00:46:41.771Z,31.30
2023-04-17T00:47:42.452Z,31.60
2023-04-17T00:48:43.107Z,30.50
2023-04-17T00:49:43.745Z,34.10
2023-04-17T00:50:44.390Z,38.00
2023-04-17T00:51:45.343Z,33.50
2023-04-17T00:52:45.702Z,36.40
2023-04-17T00:53:45.749Z,32.00
2023-04-17T00:54:46.389Z,30.10
2023-04-17T00:55:47.038Z,32.40
2023-04-17T00:56:47.653Z,34.10
2023-04-17T00:57:48.292Z,27.00
2023-04-17T00:58:48.924Z,32.00
2023-04-17T00:59:49.559Z,32.90
2023-04-17T01:00:50.226Z,32.20
2023-04-17T01:01:50.932Z,31.10
2023-04-17T01:02:51.165Z,29.10
2023-04-17T01:03:51.487Z,28.10
2023-04-17T01:04:51.657Z,34.70
2023-04-17T01:05:52.267Z,34.50
2023-04-17T01:06:52.892Z,33.90
2023-04-17T01:07:53.502Z,30.20
2023-04-17T01:08:54.123Z,36.50
2023-04-17T01:09:54.769Z,34.70
2023-04-17T01:10:55.395Z,32.20
2023-04-17T01:11:56.053Z,31.40
2023-04-17T01:15:34.066Z,28.70
2023-04-17T01:16:35.318Z,27.80
2023-04-17T01:17:35.363Z,29.00
2023-04-17T01:18:35.947Z,29.90
2023-04-17T01:19:36.499Z,33.70
2023-04-17T01:20:37.096Z,28.00
2023-04-17T01:21:37.664Z,36.10
2023-04-17T01:22:38.217Z,34.90
2023-04-17T01:23:38.309Z,35.90
2023-04-17T01:24:38.889Z,32.00
2023-04-17T01:25:39.435Z,28.90
2023-04-17T01:26:39.992Z,36.60
2023-04-17T01:27:40.540Z,34.90
2023-04-17T01:28:41.088Z,31.60
2023-04-17T01:29:41.641Z,31.50
2023-04-17T01:30:42.243Z,31.50
2023-04-17T01:31:42.235Z,32.30
2023-04-17T01:32:42.836Z,30.80
2023-04-17T01:33:42.819Z,28.90
2023-04-17T01:34:43.370Z,27.30
2023-04-17T01:35:43.959Z,30.40
2023-04-17T01:36:44.528Z,30.30
2023-04-17T01:37:45.086Z,32.00
2023-04-17T01:38:45.652Z,32.40
2023-04-17T01:39:46.212Z,36.70
2023-04-17T01:40:46.784Z,32.30
2023-04-17T01:41:47.348Z,-1.00
2023-04-17T01:42:47.909Z,39.50
2023-04-17T01:43:48.460Z,38.60
2023-04-17T01:44:49.054Z,36.00
2023-04-17T01:45:49.637Z,37.20
2023-04-17T01:46:50.202Z,39.90
2023-04-17T01:47:50.850Z,39.10
2023-04-17T01:48:50.851Z,42.10
2023-04-17T01:49:51.394Z,42.60
2023-04-17T01:50:51.940Z,40.80
2023-04-17T01:51:52.523Z,45.80
2023-04-17T01:52:53.123Z,44.80
2023-04-17T01:53:53.698Z,41.80
2023-04-17T01:54:54.278Z,41.20
2023-04-17T01:55:54.874Z,39.30
2023-04-17T01:56:55.465Z,33.90
2023-04-17T01:57:56.059Z,36.10
2023-04-17T01:58:56.628Z,34.70
2023-04-17T01:59:57.213Z,36.50
2023-04-17T02:00:57.821Z,35.10
2023-04-17T02:01:58.457Z,34.00
2023-04-17T02:02:58.551Z,33.90
2023-04-17T02:03:58.701Z,35.70
2023-04-17T02:04:58.770Z,35.00
2023-04-17T02:05:59.349Z,33.00
2023-04-17T02:06:59.939Z,31.00
2023-04-17T02:08:00.493Z,32.60
2023-04-17T02:09:01.062Z,31.30
2023-04-17T02:10:01.658Z,32.00
2023-04-17T02:11:01.692Z,32.80
2023-04-17T02:12:02.261Z,32.10
2023-04-17T02:13:02.820Z,32.30
2023-04-17T02:14:03.374Z,32.00
2023-04-17T02:15:03.962Z,30.70
2023-04-17T02:16:04.550Z,32.40
2023-04-17T02:17:05.142Z,34.10
2023-04-17T02:18:05.716Z,35.90
2023-04-17T02:19:06.311Z,35.50
2023-04-17T02:20:06.933Z,38.00
2023-04-17T02:21:06.920Z,35.40
2023-04-17T02:22:07.496Z,33.90
2023-04-17T02:23:08.078Z,28.20
2023-04-17T02:24:08.645Z,26.60
2023-04-17T02:25:09.197Z,27.50
2023-04-17T02:26:09.777Z,25.70
2023-04-17T02:27:10.358Z,27.10
2023-04-17T02:28:10.927Z,28.30
2023-04-17T02:29:11.734Z,28.10
2023-04-17T02:30:11.933Z,29.10
2023-04-17T02:31:12.590Z,31.40
2023-04-17T02:32:12.578Z,30.20
2023-04-17T02:33:13.135Z,29.80
2023-04-17T02:34:13.673Z,29.60
2023-04-17T02:35:14.228Z,31.30
2023-04-17T02:36:14.785Z,31.10
2023-04-17T02:37:15.325Z,31.50
2023-04-17T02:38:15.935Z,32.20
2023-04-17T02:39:16.500Z,34.30
2023-04-17T02:40:17.075Z,34.40
2023-04-17T02:41:17.648Z,32.90
2023-04-17T02:42:18.239Z,31.60
2023-04-17T02:43:18.792Z,32.70
2023-04-17T02:44:19.335Z,31.00
2023-04-17T02:45:19.895Z,30.30
2023-04-17T02:46:20.478Z,30.30
2023-04-17T02:47:21.055Z,29.00
2023-04-17T02:48:21.633Z,29.80
2023-04-17T02:49:22.199Z,30.10
2023-04-17T02:50:22.780Z,29.70
2023-04-17T02:51:23.353Z,32.20
2023-04-17T02:52:23.893Z,31.40
2023-04-17T02:53:24.433Z,29.50
2023-04-17T02:54:24.982Z,32.20
2023-04-17T02:55:25.539Z,30.60
2023-04-17T02:56:26.090Z,31.00
2023-04-17T02:57:26.665Z,31.20
2023-04-17T02:58:27.227Z,30.00
2023-04-17T02:59:27.870Z,28.60
2023-04-17T03:00:27.752Z,26.70
2023-04-17T03:01:28.485Z,26.20
2023-04-17T03:02:28.615Z,27.10
2023-04-17T03:03:28.765Z,25.70
2023-04-17T03:04:28.864Z,28.30
2023-04-17T03:05:29.427Z,26.00
2023-04-17T03:06:29.984Z,23.50
2023-04-17T03:07:30.533Z,26.10
2023-04-17T03:08:33.076Z,26.80
2023-04-17T03:09:31.373Z,28.40
2023-04-17T03:10:31.931Z,28.60
2023-04-17T03:11:32.468Z,26.90
2023-04-17T03:12:33.012Z,30.60
2023-04-17T03:13:33.562Z,34.90
2023-04-17T03:14:34.138Z,30.70
2023-04-17T03:15:34.697Z,33.30
2023-04-17T03:16:35.322Z,32.60
2023-04-17T03:17:35.384Z,31.70
2023-04-17T03:18:35.386Z,33.20
2023-04-17T03:19:35.941Z,33.60
2023-04-17T03:20:36.560Z,34.60
2023-04-17T03:21:37.113Z,35.70
2023-04-17T03:22:37.686Z,33.80
2023-04-17T03:23:38.254Z,37.20
2023-04-17T03:24:38.800Z,36.40
2023-04-17T03:25:39.356Z,35.10
2023-04-17T03:26:39.919Z,36.80
2023-04-17T03:27:40.462Z,35.50
2023-04-17T03:28:41.010Z,33.90
2023-04-17T03:29:41.563Z,35.00
2023-04-17T03:30:42.112Z,35.40
2023-04-17T03:31:42.696Z,36.30
2023-04-17T03:32:43.330Z,35.40
2023-04-17T03:33:43.339Z,36.00
2023-04-17T03:34:43.910Z,37.00
2023-04-17T03:35:44.488Z,33.10
2023-04-17T03:36:45.042Z,33.50
2023-04-17T03:37:45.598Z,30.60
2023-04-17T03:38:46.157Z,33.50
2023-04-17T03:39:46.710Z,32.20
2023-04-17T03:40:47.308Z,31.10
2023-04-17T03:41:47.885Z,33.80
2023-04-17T03:42:48.462Z,32.00
2023-04-17T03:43:49.053Z,31.00
2023-04-17T03:44:49.645Z,33.20
2023-04-17T03:45:50.244Z,35.60
2023-04-17T03:46:50.812Z,33.60
2023-04-17T03:47:51.396Z,35.40
2023-04-17T03:48:51.980Z,33.40
2023-04-17T03:49:52.547Z,33.10
2023-04-17T03:50:53.099Z,36.80
2023-04-17T03:51:53.665Z,35.10
2023-04-17T03:52:54.222Z,36.50
2023-04-17T03:53:54.762Z,36.00
2023-04-17T03:54:55.316Z,34.20
2023-04-17T03:55:55.873Z,37.20
2023-04-17T03:56:56.439Z,33.90
2023-04-17T03:57:57.010Z,35.90
2023-04-17T03:58:57.571Z,36.80
2023-04-17T03:59:58.131Z,35.10
2023-04-17T04:00:58.714Z,38.50
2023-04-17T04:01:59.378Z,39.30
2023-04-17T04:02:59.605Z,36.40
2023-04-17T04:03:59.846Z,37.20
2023-04-17T04:04:59.966Z,36.20
2023-04-17T04:05:59.961Z,34.10
2023-04-17T04:07:00.500Z,31.70
2023-04-17T04:08:01.062Z,32.90
2023-04-17T04:09:01.607Z,33.00
2023-04-17T04:10:02.148Z,31.00
2023-04-17T04:11:02.727Z,33.30
2023-04-17T04:12:03.297Z,34.50
2023-04-17T04:13:03.863Z,36.10
2023-04-17T04:14:04.440Z,37.10
2023-04-17T04:15:04.994Z,36.70
2023-04-17T04:16:05.620Z,37.30
2023-04-17T04:17:05.585Z,36.50
2023-04-17T04:18:06.152Z,34.90
2023-04-17T04:19:06.754Z,35.00
2023-04-17T04:20:07.336Z,33.90
2023-04-17T04:21:07.910Z,34.90
2023-04-17T04:22:08.473Z,34.70
2023-04-17T04:23:09.042Z,32.80
2023-04-17T04:24:09.610Z,32.70
2023-04-17T04:25:10.248Z,31.30
2023-04-17T04:26:10.279Z,34.40
2023-04-17T04:27:10.817Z,36.10
2023-04-17T04:28:11.350Z,33.40
2023-04-17T04:29:12.129Z,34.50
2023-04-17T04:30:12.458Z,35.80
2023-04-17T04:31:13.059Z,36.50
2023-04-17T04:32:13.698Z,38.80
2023-04-17T04:33:13.667Z,37.20
2023-04-17T04:34:14.222Z,40.30
2023-04-17T04:35:14.804Z,36.80
2023-04-17T04:36:15.353Z,39.00
2023-04-17T04:37:16.136Z,38.10
2023-04-17T04:38:16.130Z,37.20
2023-04-17T04:39:16.692Z,36.30
2023-04-17T04:40:17.229Z,33.90
2023-04-17T04:41:17.778Z,37.10
2023-04-17T04:42:18.325Z,38.70
2023-04-17T04:43:21.668Z,34.90
2023-04-17T04:44:19.425Z,33.90
2023-04-17T04:45:19.991Z,37.10
2023-04-17T04:46:20.584Z,37.10
2023-04-17T04:47:21.182Z,38.70
2023-04-17T04:48:21.754Z,35.60
2023-04-17T04:49:22.320Z,35.70
2023-04-17T04:50:22.890Z,40.00
2023-04-17T04:51:23.440Z,40.50
2023-04-17T04:52:24.002Z,39.60
2023-04-17T04:53:24.574Z,40.40
2023-04-17T04:54:25.137Z,41.40
2023-04-17T04:55:25.720Z,39.20
2023-04-17T04:56:26.312Z,37.60
2023-04-17T04:57:26.873Z,37.40
2023-04-17T04:58:27.411Z,38.90
2023-04-17T04:59:27.966Z,38.70
2023-04-17T05:00:28.531Z,39.80
2023-04-17T05:01:29.192Z,38.90
2023-04-17T05:02:29.338Z,37.70
2023-04-17T05:03:29.469Z,40.80
2023-04-17T05:04:29.604Z,35.50
2023-04-17T05:05:29.653Z,38.00
2023-04-17T05:06:30.200Z,38.70
2023-04-17T05:07:30.773Z,39.60
2023-04-17T05:08:31.333Z,40.20
2023-04-17T05:09:31.872Z,37.50
2023-04-17T05:10:32.432Z,37.80
2023-04-17T05:11:32.977Z,37.40
2023-04-17T05:12:33.520Z,37.20
2023-04-17T05:13:34.068Z,38.20
2023-04-17T05:14:34.620Z,39.50
2023-04-17T05:15:35.166Z,38.80
2023-04-17T05:16:35.778Z,38.30
2023-04-17T05:17:35.802Z,39.50
2023-04-17T05:18:35.814Z,38.20
2023-04-17T05:19:36.377Z,36.60
2023-04-17T05:20:36.945Z,36.00
2023-04-17T05:21:37.507Z,35.80
2023-04-17T05:22:38.091Z,37.20
2023-04-17T05:23:38.654Z,37.90
2023-04-17T05:24:39.218Z,38.20
2023-04-17T05:25:39.809Z,39.80
2023-04-17T05:26:40.360Z,38.90
2023-04-17T05:27:40.929Z,38.40
2023-04-17T05:28:41.495Z,36.60
2023-04-17T05:29:42.077Z,34.10
2023-04-17T05:30:42.636Z,34.80
2023-04-17T05:31:43.324Z,34.10
2023-04-17T05:32:43.356Z,33.70
2023-04-17T05:33:43.960Z,32.70
2023-04-17T05:34:44.555Z,27.80
2023-04-17T05:35:45.105Z,30.90
2023-04-17T05:36:45.748Z,28.40
2023-04-17T05:37:45.774Z,31.10
2023-04-17T05:38:46.523Z,-1.00
2023-04-17T05:39:46.529Z,28.00
2023-04-17T05:40:47.098Z,29.10
2023-04-17T05:41:47.651Z,30.40
2023-04-17T05:42:48.189Z,34.90
2023-04-17T05:43:48.756Z,34.70
2023-04-17T05:44:49.330Z,35.20
2023-04-17T05:45:49.935Z,34.50
2023-04-17T05:46:49.915Z,34.10
2023-04-17T05:47:50.536Z,36.20
2023-04-17T05:48:50.551Z,35.50
2023-04-17T05:49:51.120Z,33.90
2023-04-17T05:50:51.702Z,34.10
2023-04-17T05:51:52.264Z,33.30
2023-04-17T05:52:52.840Z,31.30
2023-04-17T05:53:53.431Z,34.10
2023-04-17T05:54:54.024Z,35.10
2023-04-17T05:55:54.597Z,39.20
2023-04-17T05:56:55.144Z,44.60
2023-04-17T05:57:58.029Z,39.10
2023-04-17T05:58:55.903Z,39.00
2023-04-17T05:59:56.469Z,39.70
2023-04-17T06:00:57.037Z,40.80
2023-04-17T06:01:57.648Z,42.70
2023-04-17T06:02:57.846Z,41.90
2023-04-17T06:03:58.416Z,40.80
2023-04-17T06:04:58.982Z,44.70
2023-04-17T06:05:59.109Z,40.40
2023-04-17T06:06:59.675Z,46.50
2023-04-17T06:08:00.250Z,45.50
2023-04-17T06:09:00.816Z,45.40
2023-04-17T06:10:01.437Z,40.90
2023-04-17T06:11:01.505Z,40.20
2023-04-17T06:12:01.518Z,44.40
2023-04-17T06:13:02.114Z,42.70
2023-04-17T06:14:02.686Z,39.70
2023-04-17T06:15:03.234Z,41.00
2023-04-17T06:16:03.805Z,37.60
2023-04-17T06:17:04.421Z,38.80
2023-04-17T06:18:04.518Z,38.40
2023-04-17T06:19:04.523Z,35.20
2023-04-17T06:20:05.114Z,36.30
2023-04-17T06:21:05.707Z,36.70
2023-04-17T06:22:06.286Z,35.60
2023-04-17T06:23:06.853Z,35.30
2023-04-17T06:24:07.439Z,36.70
2023-04-17T06:25:08.028Z,34.90
2023-04-17T06:26:08.594Z,34.90
2023-04-17T06:27:09.144Z,40.90
2023-04-17T06:28:09.714Z,37.30
2023-04-17T06:29:10.521Z,39.40
2023-04-17T06:30:11.671Z,38.30
2023-04-17T06:31:11.088Z,37.30
2023-04-17T06:32:11.676Z,37.00
2023-04-17T06:33:12.254Z,34.50
2023-04-17T06:34:12.823Z,37.80
2023-04-17T06:35:13.390Z,38.70
2023-04-17T06:36:13.961Z,36.60
2023-04-17T06:37:14.533Z,39.80
2023-04-17T06:38:15.108Z,47.00
2023-04-17T06:39:15.764Z,39.30
2023-04-17T06:40:15.782Z,42.00
2023-04-17T06:41:16.464Z,42.40
2023-04-17T06:42:16.466Z,41.50
2023-04-17T06:43:17.015Z,37.60
2023-04-17T06:44:17.592Z,35.80
2023-04-17T06:45:18.176Z,37.60
2023-04-17T06:46:18.792Z,38.40
2023-04-17T06:47:18.897Z,36.90
2023-04-17T06:48:18.913Z,37.10
2023-04-17T06:49:19.480Z,39.50
2023-04-17T06:50:20.028Z,38.90
2023-04-17T06:51:20.581Z,38.40
2023-04-17T06:52:21.160Z,33.10
2023-04-17T06:53:21.722Z,38.90
2023-04-17T06:54:22.280Z,39.40
2023-04-17T06:55:22.842Z,31.30
2023-04-17T06:56:23.420Z,32.30
2023-04-17T06:57:23.994Z,33.40
2023-04-17T06:58:24.544Z,32.50
2023-04-17T06:59:25.103Z,32.90
2023-04-17T07:00:25.688Z,30.70
2023-04-17T07:01:26.315Z,33.20
2023-04-17T07:02:26.536Z,32.70
2023-04-17T07:03:26.805Z,30.20
2023-04-17T07:04:26.890Z,29.90
2023-04-17T07:05:26.895Z,27.50
2023-04-17T07:06:27.467Z,27.00
2023-04-17T07:07:28.033Z,25.50
2023-04-17T07:08:28.603Z,23.90
2023-04-17T07:09:29.155Z,24.40
2023-04-17T07:10:29.736Z,28.60
2023-04-17T07:11:30.297Z,30.50
2023-04-17T07:12:30.857Z,31.80
2023-04-17T07:13:31.452Z,32.80
2023-04-17T07:14:31.473Z,33.80
2023-04-17T07:15:32.047Z,33.20
2023-04-17T07:16:32.673Z,32.40
2023-04-17T07:17:32.726Z,30.60
2023-04-17T07:18:32.722Z,27.00
2023-04-17T07:19:33.279Z,28.80
2023-04-17T07:20:33.826Z,29.60
2023-04-17T07:21:34.397Z,29.30
2023-04-17T07:22:34.972Z,28.50
2023-04-17T07:23:35.541Z,27.80
2023-04-17T07:24:36.108Z,30.10
2023-04-17T07:25:36.669Z,29.50
2023-04-17T07:26:37.222Z,27.20
2023-04-17T07:27:37.791Z,29.50
2023-04-17T07:28:38.372Z,26.20
2023-04-17T07:29:38.940Z,25.80
2023-04-17T07:30:39.506Z,22.60
2023-04-17T07:31:40.084Z,22.80
2023-04-17T07:32:40.127Z,20.00
2023-04-17T07:33:40.754Z,18.30
2023-04-17T07:34:40.743Z,16.30
2023-04-17T07:35:41.301Z,14.80
2023-04-17T07:36:41.858Z,13.60
2023-04-17T07:37:42.408Z,12.40
2023-04-17T07:38:42.961Z,12.90
2023-04-17T07:39:43.605Z,10.70
2023-04-17T07:40:43.496Z,10.10
2023-04-17T07:41:44.040Z,9.60
2023-04-17T07:42:44.543Z,7.90
2023-04-17T07:43:45.010Z,7.60
2023-04-17T07:44:45.508Z,7.80
2023-04-17T07:45:46.001Z,8.20
2023-04-17T07:46:46.526Z,8.50
2023-04-17T07:47:47.073Z,7.40
2023-04-17T07:48:47.614Z,7.70
2023-04-17T07:49:48.118Z,6.90
2023-04-17T07:50:48.582Z,6.70
2023-04-17T07:51:49.016Z,7.20
2023-04-17T07:52:49.481Z,6.40
2023-04-17T07:53:49.929Z,6.40
2023-04-17T07:54:50.374Z,6.30
2023-04-17T07:55:50.845Z,6.40
2023-04-17T07:56:51.286Z,6.70
2023-04-17T07:57:51.811Z,6.80
2023-04-17T07:58:52.279Z,5.90
2023-04-17T07:59:52.736Z,-1.00
2023-04-17T08:00:53.225Z,5.80
2023-04-17T08:01:53.773Z,6.00
2023-04-17T08:02:54.407Z,5.60
2023-04-17T08:03:54.562Z,5.80
2023-04-17T08:04:54.677Z,5.90
2023-04-17T08:05:54.681Z,6.30
2023-04-17T08:06:54.731Z,5.80
2023-04-17T08:07:55.226Z,6.40
2023-04-17T08:08:55.682Z,6.90
2023-04-17T08:09:56.144Z,7.30
2023-04-17T08:10:56.703Z,6.30
2023-04-17T08:11:58.088Z,6.40
2023-04-17T08:12:57.072Z,6.40
2023-04-17T08:13:57.526Z,5.90
2023-04-17T08:14:57.990Z,5.10
2023-04-17T08:15:58.446Z,5.10
2023-04-17T08:16:58.972Z,5.00
2023-04-17T08:17:59.564Z,5.00
2023-04-17T08:18:59.532Z,4.90
2023-04-17T08:20:00.058Z,4.80
2023-04-17T08:21:00.552Z,5.00
2023-04-17T08:22:01.061Z,5.00
2023-04-17T08:23:01.649Z,5.30
2023-04-17T08:24:01.588Z,5.30
2023-04-17T08:25:02.193Z,4.90
2023-04-17T08:26:02.136Z,4.90
2023-04-17T08:27:02.643Z,5.00
2023-04-17T08:28:03.214Z,5.80
2023-04-17T08:29:03.737Z,6.10
2023-04-17T08:30:04.243Z,5.30
2023-04-17T08:31:04.806Z,4.90
2023-04-17T08:32:13.146Z,4.90
2023-04-17T08:33:04.936Z,-1.00
2023-04-17T08:34:13.599Z,4.70
2023-04-17T08:35:05.071Z,5.50
2023-04-17T08:36:08.468Z,4.70
2023-04-17T08:37:05.803Z,4.80
2023-04-17T08:38:06.317Z,4.40
2023-04-17T08:39:06.796Z,4.20
2023-04-17T08:40:07.267Z,4.20
2023-04-17T08:41:07.743Z,4.70
2023-04-17T08:42:08.436Z,4.10
2023-04-17T08:43:08.764Z,4.00
2023-04-17T08:44:09.282Z,4.50
2023-04-17T08:45:09.793Z,3.90
2023-04-17T08:46:10.320Z,4.20
2023-04-17T08:47:10.890Z,4.20
2023-04-17T08:48:11.364Z,4.30
2023-04-17T08:49:12.067Z,4.60
2023-04-17T08:50:12.066Z,4.30
2023-04-17T08:51:12.559Z,4.30
2023-04-17T08:52:13.061Z,4.70
2023-04-17T08:53:13.546Z,4.50
2023-04-17T08:54:14.017Z,4.90
2023-04-17T08:55:14.482Z,4.40
2023-04-17T08:56:14.961Z,4.30
2023-04-17T08:57:15.445Z,4.80
2023-04-17T08:58:15.919Z,4.80
2023-04-17T08:59:16.466Z,4.90
2023-04-17T09:00:16.989Z,4.90
2023-04-17T09:01:17.486Z,5.10
2023-04-17T09:02:18.147Z,5.10
2023-04-17T09:03:18.328Z,4.20
2023-04-17T09:04:18.537Z,4.90
2023-04-17T09:05:18.581Z,5.00
2023-04-17T09:06:19.117Z,5.00
2023-04-17T09:07:19.664Z,4.70
2023-04-17T09:08:20.202Z,5.10
2023-04-17T09:09:20.736Z,4.70
2023-04-17T09:10:21.436Z,5.70
2023-04-17T09:11:21.396Z,5.00
2023-04-17T09:12:21.909Z,5.30
2023-04-17T09:13:22.410Z,5.60
2023-04-17T09:14:24.126Z,5.20
2023-04-17T09:15:23.208Z,5.60
2023-04-17T09:16:23.793Z,5.40
2023-04-17T09:17:23.737Z,5.50
2023-04-17T09:18:24.223Z,5.80
2023-04-17T09:19:24.719Z,4.90
2023-04-17T09:20:25.195Z,5.30
2023-04-17T09:21:25.682Z,5.80
2023-04-17T09:22:26.163Z,6.10
2023-04-17T09:23:26.638Z,6.20
2023-04-17T09:24:27.118Z,5.80
2023-04-17T09:25:27.603Z,6.30
2023-04-17T09:26:28.094Z,6.60
2023-04-17T09:27:28.552Z,7.90
2023-04-17T09:28:28.997Z,7.30
2023-04-17T09:29:29.439Z,7.40
2023-04-17T09:30:29.928Z,6.80
2023-04-17T09:31:30.532Z,6.90
2023-04-17T09:32:30.483Z,7.80
2023-04-17T09:33:30.951Z,8.10
2023-04-17T09:34:31.550Z,9.10
2023-04-17T09:35:31.489Z,8.50
2023-04-17T09:36:32.222Z,8.80
2023-04-17T09:37:32.170Z,9.20
2023-04-17T09:38:32.653Z,9.20
2023-04-17T09:39:33.138Z,9.30
2023-04-17T09:40:33.608Z,8.90
2023-04-17T09:41:34.078Z,8.60
2023-04-17T09:42:34.586Z,8.70
2023-04-17T09:43:35.051Z,9.10
2023-04-17T09:44:35.577Z,9.00
2023-04-17T09:45:36.111Z,11.20
2023-04-17T09:46:36.236Z,9.90
2023-04-17T09:47:36.826Z,9.40
2023-04-17T09:48:37.326Z,9.00
2023-04-17T09:49:37.791Z,8.70
2023-04-17T09:50:39.080Z,9.00
2023-04-17T09:51:38.655Z,9.50
2023-04-17T09:52:39.154Z,8.40
2023-04-17T09:53:39.617Z,8.60
2023-04-17T09:54:40.167Z,9.40
2023-04-17T09:55:40.106Z,8.70
2023-04-17T09:56:40.570Z,8.70
2023-04-17T09:57:42.790Z,8.50
2023-04-17T09:58:41.499Z,8.50
2023-04-17T09:59:42.044Z,9.30
2023-04-17T10:00:42.422Z,8.90
2023-04-17T10:01:42.530Z,9.10
2023-04-17T10:02:42.748Z,10.00
2023-04-17T10:03:42.975Z,10.10
2023-04-17T10:04:43.261Z,11.20
2023-04-17T10:05:43.282Z,9.40
2023-04-17T10:06:43.841Z,9.80
2023-04-17T10:07:43.824Z,10.30
2023-04-17T10:08:44.363Z,8.00
2023-04-17T10:09:44.850Z,8.40
2023-04-17T10:10:45.349Z,8.80
2023-04-17T10:11:45.837Z,9.00
2023-04-17T10:12:46.324Z,8.60
2023-04-17T10:13:46.860Z,9.40
2023-04-17T10:14:47.417Z,9.30
2023-04-17T10:15:47.924Z,8.40
2023-04-17T10:16:48.482Z,8.30
2023-04-17T10:17:48.457Z,8.30
2023-04-17T10:18:48.976Z,8.30
2023-04-17T10:19:49.462Z,8.20
2023-04-17T10:20:49.964Z,9.10
2023-04-17T10:21:50.561Z,9.80
2023-04-17T10:22:50.517Z,9.00
2023-04-17T10:23:51.048Z,9.70
2023-04-17T10:24:51.045Z,10.20
2023-04-17T10:25:51.044Z,10.40
2023-04-17T10:26:51.597Z,9.70
2023-04-17T10:27:51.584Z,9.50
2023-04-17T10:28:52.151Z,9.80
2023-04-17T10:29:52.688Z,9.00
2023-04-17T10:30:53.178Z,8.60
2023-04-17T10:31:53.762Z,8.80
2023-04-17T10:32:53.781Z,8.50
2023-04-17T10:33:53.737Z,8.40
2023-04-17T10:34:54.237Z,8.40
2023-04-17T10:35:54.746Z,8.60
2023-04-17T10:36:55.225Z,8.70
2023-04-17T10:37:55.691Z,8.50
2023-04-17T10:38:56.155Z,7.90
2023-04-17T10:39:56.684Z,7.70
2023-04-17T10:40:58.445Z,8.00
2023-04-17T10:41:57.551Z,7.90
2023-04-17T10:42:58.006Z,7.50
2023-04-17T10:43:58.517Z,7.90
2023-04-17T10:44:59.009Z,8.50
2023-04-17T10:45:59.599Z,8.20
2023-04-17T10:46:59.570Z,7.40
2023-04-17T10:48:00.135Z,8.20
2023-04-17T10:49:00.164Z,8.00
2023-04-17T10:50:00.723Z,8.00
2023-04-17T10:51:00.631Z,7.90
2023-04-17T13:19:48.908Z,6.80
2023-04-17T13:20:50.073Z,6.10
2023-04-17T13:21:50.650Z,6.90
2023-04-17T13:22:51.210Z,7.60
2023-04-17T13:23:51.769Z,7.00
2023-04-17T13:24:52.328Z,6.80
2023-04-17T13:25:52.883Z,6.30
2023-04-17T13:26:53.429Z,6.40
2023-04-17T13:27:53.934Z,7.00
2023-04-17T13:28:54.452Z,6.60
2023-04-17T13:29:54.957Z,6.60
2023-04-17T13:30:55.476Z,5.70
2023-04-17T13:31:55.966Z,5.10
2023-04-17T13:32:56.483Z,5.80
2023-04-17T13:33:56.437Z,5.90
2023-04-17T13:34:58.720Z,5.50
2023-04-17T13:35:57.103Z,5.10
2023-04-17T13:36:57.575Z,5.60
2023-04-17T13:37:58.089Z,5.80
2023-04-17T13:38:58.545Z,5.80
2023-04-17T13:39:59.030Z,5.70
2023-04-17T13:40:59.472Z,6.00
2023-04-17T13:41:59.922Z,5.80
2023-04-17T13:43:00.463Z,5.90
2023-04-17T13:44:00.410Z,6.50
2023-04-17T13:45:00.900Z,6.70
2023-04-17T13:46:01.426Z,6.90
2023-04-17T13:47:01.910Z,7.70
2023-04-17T13:48:02.422Z,6.60
2023-04-17T13:49:02.944Z,7.50
2023-04-17T13:50:03.465Z,7.60
2023-04-17T13:51:04.030Z,7.40
2023-04-17T13:52:04.549Z,7.70
2023-04-17T13:53:05.054Z,7.60
2023-04-17T13:54:05.554Z,8.10
2023-04-17T13:55:06.050Z,8.40
2023-04-17T13:56:06.564Z,8.40
2023-04-17T13:57:07.091Z,7.60
2023-04-17T13:58:07.600Z,7.50
2023-04-17T13:59:08.136Z,7.90
2023-04-17T14:00:08.694Z,8.00
2023-04-17T14:01:09.246Z,8.20
2023-04-17T14:02:09.875Z,8.90
2023-04-17T14:03:10.098Z,8.60
2023-04-17T14:04:10.502Z,8.10
2023-04-17T14:05:10.649Z,8.20
2023-04-17T14:06:10.632Z,9.10
2023-04-17T14:07:11.158Z,8.30
2023-04-17T14:08:11.716Z,8.70
2023-04-17T14:09:12.549Z,8.40
2023-04-17T14:10:12.729Z,8.00
2023-04-17T14:11:13.283Z,8.30
2023-04-17T14:12:13.840Z,8.60
2023-04-17T14:13:14.433Z,8.80
2023-04-17T14:14:15.009Z,8.70
2023-04-17T14:15:15.578Z,8.30
2023-04-17T14:16:16.413Z,9.20
2023-04-17T14:17:16.445Z,8.80
2023-04-17T14:18:16.987Z,8.70
2023-04-17T14:19:18.006Z,8.50
2023-04-17T14:20:18.159Z,8.40
2023-04-17T14:21:18.718Z,8.40
2023-04-17T14:22:19.286Z,8.20
2023-04-17T14:23:19.822Z,7.70
2023-04-17T14:24:20.368Z,7.70
2023-04-17T14:25:20.906Z,7.70
2023-04-17T14:26:21.446Z,8.80
2023-04-17T14:27:22.004Z,7.80
2023-04-17T14:28:22.563Z,8.00
2023-04-17T14:29:23.100Z,7.70
2023-04-17T14:30:23.641Z,8.10
2023-04-17T14:31:24.226Z,8.20
2023-04-17T14:32:24.835Z,8.50
2023-04-17T14:33:24.848Z,9.20
2023-04-17T14:34:25.472Z,10.00
2023-04-17T14:35:25.501Z,9.00
2023-04-17T14:36:26.100Z,7.70
2023-04-17T14:37:26.680Z,8.10
2023-04-17T14:38:27.248Z,8.50
2023-04-17T14:39:28.392Z,9.10
2023-04-17T14:40:27.818Z,8.50
2023-04-17T14:41:28.385Z,7.80
2023-04-17T14:42:28.453Z,10.00
2023-04-17T14:43:29.052Z,9.00
2023-04-17T14:44:29.628Z,8.80
2023-04-17T14:45:30.195Z,7.40
2023-04-17T14:46:30.901Z,7.80
2023-04-17T14:47:30.952Z,8.00
2023-04-17T14:48:34.376Z,7.90
2023-04-17T14:49:31.735Z,9.40
2023-04-17T14:50:32.802Z,11.10
2023-04-17T14:51:33.219Z,8.90
2023-04-17T14:52:32.584Z,7.50
2023-04-17T14:53:33.192Z,13.00
2023-04-17T14:54:33.210Z,10.70
2023-04-17T14:55:33.790Z,7.50
2023-04-17T14:56:34.349Z,9.30
2023-04-17T14:57:34.945Z,8.80
2023-04-17T14:58:35.516Z,8.50
2023-04-17T14:59:36.086Z,8.20
2023-04-17T15:00:36.672Z,9.30
2023-04-17T15:01:37.333Z,9.30
2023-04-17T15:02:37.425Z,8.90
2023-04-17T15:03:37.632Z,7.80
2023-04-17T15:04:37.774Z,7.40
2023-04-17T15:05:38.302Z,7.20
2023-04-17T15:06:38.823Z,7.30
2023-04-17T15:07:39.352Z,7.10
2023-04-17T15:08:39.938Z,7.00
2023-04-17T15:09:40.466Z,6.60
2023-04-17T15:10:50.651Z,6.40
2023-04-17T15:11:41.199Z,7.30
2023-04-17T15:12:41.748Z,8.10
2023-04-17T15:13:42.359Z,9.30
2023-04-17T15:14:42.321Z,8.20
2023-04-17T15:15:42.873Z,8.60
2023-04-17T15:16:43.498Z,8.00
2023-04-17T15:17:43.604Z,7.80
2023-04-17T15:18:43.630Z,8.20
2023-04-17T15:19:44.159Z,7.90
2023-04-17T15:20:44.213Z,9.40
2023-04-17T15:21:44.857Z,8.30
2023-04-17T15:22:44.825Z,7.80
2023-04-17T15:23:45.355Z,7.90
2023-04-17T15:24:45.890Z,7.00
2023-04-17T15:25:46.440Z,7.60
2023-04-17T15:26:46.963Z,6.70
2023-04-17T15:27:47.514Z,6.90
2023-04-17T15:28:48.057Z,6.90
2023-04-17T15:29:48.634Z,6.50
2023-04-17T15:30:49.215Z,6.60
2023-04-17T15:31:49.779Z,6.40
2023-04-17T15:32:49.825Z,5.90
2023-04-17T15:33:50.397Z,6.80
2023-04-17T15:34:50.954Z,6.90
2023-04-17T15:35:51.496Z,7.40
2023-04-17T15:36:52.029Z,6.50
2023-04-17T15:37:52.562Z,6.30
2023-04-17T15:38:53.096Z,6.40